Decoded Metar for EGJJ (JERSEY in ENGLAND) (IATA:JER) | Meteo·Mobile Aviation Weather
aviador You're here:

EGJJ Decoded Metar

JERSEY in ENGLAND
Report Time2019-10-18 16:20:00
UTC Time2019-10-18 16:34:09
Flight Rules vfr VFR
Wind220° at 18 kt
W.Decomp.*RWY 27: 11.8 kt HW 13.6 kt LCW
Visibility9999 m
Phenomena:Vicinity showers
Clouds:Few CB 020 Hf
Few 027 Hf
Expected CloudBase > 2,000 ft AGL from Temp-Dew spread
CeilingNone
Temp14°C (ISA -0)
Dew Point09°C (72% RH)
AAT7.3°C
QNH1004 hPa
Density Alt686 ft
Elevation276 ft
Report Wrong Elevation
Raw Report
METAR EGJJ 181620Z 22018KT 9999 VCSH FEW020CB FEW027 14/09 Q1004=

Extra information for EGJJ:More info

Metar Taf Metar & Taf Last 4 Metars F.Rules Stats Wind Profile Meteogram Temp Stats Airport Information Weather charts Add Link Nearby VenuesMetar ALERT Operation Metar Decoded Social comments